Historyczne dane pomiarowe

Dodano dane terminowe – wersja testowa.

Dane z okresu 1951-2019

Wersja bazy: 1.34 [2019-03-16, lista zmian], aktualizacja planowana na 2019-04-15

Dane meteo z obszaru Polski uzyskane na podstawie danych udostępnionych przez Instytut Meteorologii i Gospodarki Wodnej – Państwowy Instytut Badawczy.

 

Wybierz Datę:    

       

TemperaturaWilgotnośćWiatrCiśnienieOpadyŚniegCzas trwania zjawisk
 Stacja t tx tn tng RH VA  wxwx mslp ppp RRR   cm mm wxwxwxwxwxwxwx
1987-08-14 13.4 18.1 8.9 5.7 87.0- 8.0 2.7---- 0.8------------
1987-08-13 14.3 20.3 7.2 3.5 72.3- 2.3 2.3---- 0.0------------
1987-08-12 12.7 18.2 8.0 6.0 77.0- 3.3 3.3---- 0.1------------
1987-08-11 12.0 16.8 10.4 9.0 90.0- 6.0 2.7---- 3.7------------
1987-08-10 14.4 18.6 12.6 12.5 89.8- 8.0 3.3---- 3.2------------
1987-08-09 16.3 23.3 11.4 8.0 75.3- 5.3 1.7---- 6.9------------
1987-08-08 14.2 21.5 7.6 6.0 80.8- 2.3 1.7---- 0.4------------
1987-08-07 13.0 19.1 7.5 6.0 74.8- 2.3 1.3---- 0.0------------
1987-08-06 11.5 13.6 9.5 8.3 89.0- 8.0 5.3---- 1.7------------
1987-08-05 11.8 16.6 8.3 6.7 83.3- 4.3 3.0---- 0.2------------
1987-08-04 13.3 17.3 10.5 8.7 83.8- 3.0 2.3---- 0.8------------
1987-08-03 13.4 18.7 9.1 7.5 77.3- 6.7 3.3---- 0.9------------
1987-08-02 13.2 17.7 10.5 8.7 78.8- 3.0 5.0---- 1.0------------
1987-08-01 15.1 16.8 13.9 12.0 90.5- 7.3 3.0---- 6.2------------
1987-07-31 16.2 19.7 13.8 14.2 82.5- 8.0 4.7---- 0.1------------
1987-07-30 16.8 23.1 12.6 11.3 76.8- 8.0 1.3---- 0.6------------
1987-07-29 14.2 18.7 10.3 8.0 77.0- 7.7 1.7---- 0.0------------
1987-07-28 14.2 18.5 12.0 11.2 81.0- 5.0 6.0---- 0.0------------
1987-07-27 12.8 16.2 9.0 7.5 79.3- 7.3 4.3---- 0.0------------
1987-07-26 13.7 17.8 10.0 8.5 81.8- 4.0 2.7---- 0.0------------
1987-07-25 16.2 20.6 14.0 12.5 86.8- 4.3 3.0---- 0.0------------
1987-07-24 19.5 24.5 15.0 14.5 82.8- 2.0 1.7---- 0.0------------
1987-07-23 20.3 26.2 14.7 12.5 81.8- 5.0 1.0---- 13.4------------
1987-07-22 20.3 24.3 16.5 15.6 87.3- 1.3 1.3---- 0.0------------
1987-07-21 20.0 25.2 12.4 10.5 79.5- 1.7 0.7---- 0.2------------
1987-07-20 18.4 22.8 14.3 15.1 85.0- 4.7 2.0---- 0.2------------
1987-07-19 17.6 23.1 17.0 16.6 97.0- 8.0 3.7---- 11.0------------
1987-07-18 21.0 25.1 18.0 17.6 92.3- 6.0 1.7---- 16.0------------
1987-07-17 18.5 24.2 14.5 12.5 91.3- 6.3 4.3---- 3.5------------
1987-07-16 18.3 23.9 11.5 10.0 71.5- 4.0 2.3---- 0.0------------
1987-07-15 17.2 22.2 10.0 7.0 69.3- 1.0 3.0---- 0.0------------
1987-07-14 16.3 21.7 10.6 8.0 69.5- 2.0 2.3---- 0.0------------
1987-07-13 14.8 19.3 11.7 9.0 82.0- 4.0 2.7---- 0.0------------
1987-07-12 16.5 20.0 15.3 14.5 97.0- 6.0 1.3---- 16.2------------
1987-07-11 14.1 19.7 10.3 7.0 94.8- 8.0 1.7---- 38.0------------
1987-07-10 12.7 17.2 9.5 8.0 85.8- 2.3 5.3---- 1.0------------
1987-07-09 15.9 22.3 14.5 14.8 85.5- 7.7 2.0---- 1.2------------
1987-07-08 21.5 29.8 14.5 8.5 77.8- 3.7 1.7---- 8.6------------
1987-07-07 21.2 27.2 12.7 8.0 61.8- 0.0 2.0---- 0.0------------
1987-07-06 18.6 25.7 8.0 5.2 69.0- 0.0 0.3---- 0.0------------
1987-07-05 16.6 22.1 8.5 7.0 75.5- 3.0 2.3---- 0.0------------
1987-07-04 17.7 22.5 10.5 8.1 72.8- 3.7 2.7---- 0.0------------
1987-07-03 17.4 22.5 10.3 8.0 73.3- 3.0 1.7---- 0.0------------
1987-07-02 19.0 22.9 12.2 11.0 73.3- 0.3 1.0---- 0.0------------
1987-07-01 23.8 30.8 19.5 15.7 85.3- 5.3 1.0---- 5.7------------
1987-06-30 25.0 30.2 19.1 16.6 78.5- 0.0 2.0---- 0.0------------
1987-06-29 18.6 25.6 10.8 6.5 86.8- 5.7 1.3---- 0.0------------
1987-06-28 17.0 21.3 13.5 9.6 89.3- 4.7 2.3---- 0.0------------
1987-06-27 17.8 21.8 14.7 14.0 79.0- 3.0 2.3---- 0.0------------
1987-06-26 16.8 21.9 11.5 10.5 77.8- 3.0 2.0---- 0.0------------
1987-06-25 13.2 17.2 10.5 10.7 88.5- 6.7 1.7---- 0.2------------
1987-06-24 15.0 18.9 10.9 9.5 80.0- 5.3 2.3---- 2.8------------
1987-06-23 16.1 20.8 11.0 9.0 82.8- 6.3 1.3---- 0.0------------
1987-06-22 15.7 20.0 13.7 13.5 90.8- 6.3 3.7---- 0.0------------
1987-06-21 17.5 24.4 12.0 9.5 76.8- 3.0 1.0---- 7.7------------
1987-06-20 15.3 21.2 9.4 6.0 73.8- 3.0 2.7---- 0.0------------
1987-06-19 12.3 16.8 8.5 7.5 83.5- 5.3 2.0---- 0.1------------
1987-06-18 10.9 15.8 7.5 5.2 78.8- 3.0 4.0---- 0.2------------
1987-06-17 12.2 15.0 10.3 10.0 76.3- 4.7 4.0---- 0.0------------
1987-06-16 12.0 21.3 9.4 10.0 91.0- 8.0 5.0---- 4.3------------
1400.9 ms

 

Źródłem pochodzenia danych jest Instytut Meteorologii i Gospodarki Wodnej – Państwowy Instytut Badawczy. Dane Instytutu Meteorologii i Gospodarki Wodnej – Państwowego Instytutu Badawczego zostały przetworzone.

Dane źródłowe można odnaleźć na stronie https://dane.imgw.pl